createdAt,value
2022-08-17T02:37:22.316Z,6.07
2022-08-17T02:42:29.865Z,6.15
2022-08-17T02:47:33.440Z,6.53
2022-08-17T02:52:57.309Z,6.90
2022-08-17T02:58:04.630Z,6.03
2022-08-17T03:03:09.519Z,6.30
2022-08-17T03:19:42.244Z,6.30
2022-08-17T03:24:46.760Z,6.70
2022-08-17T03:29:51.468Z,6.65
2022-08-17T03:35:00.943Z,6.40
2022-08-17T03:40:07.237Z,6.75
2022-08-17T03:45:15.585Z,6.88
2022-08-17T03:50:21.324Z,7.07
2022-08-17T03:55:35.780Z,6.88
2022-08-17T04:00:40.135Z,7.13
2022-08-17T04:05:45.561Z,7.40
2022-08-17T04:39:46.355Z,7.22
2022-08-17T04:44:49.996Z,6.90
2022-08-17T04:49:53.589Z,6.32
2022-08-17T04:54:58.804Z,6.35
2022-08-17T05:00:02.603Z,6.05
2022-08-17T05:05:07.508Z,5.53
2022-08-17T05:10:12.971Z,5.40
2022-08-17T05:15:16.624Z,5.13
2022-08-17T05:20:20.247Z,5.03
2022-08-17T05:25:28.717Z,5.10
2022-08-17T05:30:35.772Z,4.90
2022-08-17T05:35:42.334Z,4.93
2022-08-17T05:40:48.463Z,5.13
2022-08-17T05:46:01.134Z,4.80
2022-08-17T05:51:22.664Z,4.82
2022-08-17T05:56:47.833Z,4.53
2022-08-17T06:02:05.403Z,4.55
2022-08-17T06:07:15.687Z,4.28
2022-08-17T06:12:38.966Z,4.03
2022-08-17T06:17:44.019Z,3.90
2022-08-17T06:22:50.351Z,3.92
2022-08-17T06:28:00.017Z,4.30
2022-08-17T06:33:08.308Z,3.90
2022-08-17T06:38:38.518Z,3.80
2022-08-17T06:43:56.171Z,3.75
2022-08-17T06:49:12.097Z,4.05
2022-08-17T06:54:21.110Z,3.90
2022-08-17T06:59:54.477Z,3.80
2022-08-17T07:04:55.954Z,3.90
2022-08-17T07:10:01.905Z,4.07
2022-08-17T07:15:13.933Z,4.18
2022-08-17T07:20:20.096Z,3.70
2022-08-17T07:25:23.760Z,3.60
2022-08-17T07:30:31.864Z,4.07
2022-08-17T07:35:49.415Z,3.80
2022-08-17T07:41:02.670Z,3.80
2022-08-17T07:46:17.831Z,3.90
2022-08-17T07:51:25.514Z,4.07
2022-08-17T07:56:39.663Z,4.30
2022-08-17T08:01:47.853Z,3.67
2022-08-17T08:07:02.029Z,3.80
2022-08-17T08:12:32.720Z,3.42
2022-08-17T08:17:50.509Z,3.78
2022-08-17T08:23:03.686Z,3.83
2022-08-17T08:28:18.911Z,4.07
2022-08-17T08:33:42.881Z,4.13
2022-08-17T08:38:52.951Z,4.10
2022-08-17T08:44:07.174Z,3.63
2022-08-17T08:50:02.572Z,3.72
2022-08-17T08:55:11.298Z,4.38
2022-08-17T09:00:17.438Z,4.00
2022-08-17T09:05:33.545Z,4.35
2022-08-17T09:10:54.197Z,4.22
2022-08-17T09:16:03.645Z,4.32
2022-08-17T09:21:15.113Z,4.63
2022-08-17T09:26:28.888Z,4.65
2022-08-17T09:31:34.487Z,4.78
2022-08-17T09:37:05.098Z,4.53
2022-08-17T09:42:15.479Z,4.70
2022-08-17T09:47:27.031Z,4.60
2022-08-17T09:52:32.847Z,4.50
2022-08-17T09:57:56.108Z,5.15
2022-08-17T10:03:24.200Z,5.32
2022-08-17T10:08:40.021Z,5.80
2022-08-17T10:13:53.540Z,6.22
2022-08-17T10:19:14.772Z,6.05
2022-08-17T10:24:23.965Z,6.57
2022-08-17T10:29:48.505Z,6.35
2022-08-17T10:35:25.564Z,5.93
2022-08-17T10:40:45.355Z,6.00
2022-08-17T10:46:10.544Z,5.90
2022-08-17T10:51:38.259Z,5.82
2022-08-17T10:56:49.560Z,5.68
2022-08-17T11:02:09.975Z,5.60
2022-08-17T11:07:26.638Z,5.47
2022-08-17T11:12:46.153Z,5.80
2022-08-17T11:18:19.299Z,6.47
2022-08-17T11:23:54.359Z,5.60
2022-08-17T11:29:04.600Z,5.65
2022-08-17T11:34:18.153Z,5.97
2022-08-17T11:39:54.372Z,5.95
2022-08-17T11:45:04.269Z,5.57
2022-08-17T11:50:37.223Z,5.80
2022-08-17T11:56:05.707Z,5.70
2022-08-17T12:01:13.610Z,6.43
2022-08-17T12:06:49.195Z,6.57
2022-08-17T12:12:13.305Z,6.38
2022-08-17T12:17:40.467Z,5.95
2022-08-17T12:22:55.541Z,6.40
2022-08-17T12:28:06.825Z,5.63
2022-08-17T12:33:25.236Z,6.10
2022-08-17T12:38:33.640Z,6.63
2022-08-17T12:43:37.330Z,6.22
2022-08-17T12:48:59.842Z,6.05
2022-08-17T12:54:04.047Z,6.32
2022-08-17T12:59:07.675Z,6.25
2022-08-17T13:04:14.884Z,7.00
2022-08-17T13:09:23.433Z,6.93
2022-08-17T13:14:45.841Z,7.45
2022-08-17T13:19:51.990Z,7.97
2022-08-17T13:24:57.494Z,7.28
2022-08-17T13:30:04.735Z,8.23
2022-08-17T13:35:41.815Z,7.70
2022-08-17T13:40:51.194Z,8.55
2022-08-17T13:46:07.739Z,9.40
2022-08-17T13:51:35.738Z,8.40
2022-08-17T13:56:54.977Z,8.75
2022-08-17T14:01:58.611Z,9.20
2022-08-17T14:07:27.044Z,8.95
2022-08-17T14:12:33.898Z,8.85
2022-08-17T14:17:39.101Z,9.02
2022-08-17T14:22:48.930Z,7.97
2022-08-17T14:27:54.069Z,8.18
2022-08-17T14:33:00.884Z,8.05
2022-08-17T14:38:06.094Z,8.50
2022-08-17T14:43:09.660Z,8.55
2022-08-17T14:48:13.454Z,7.22
2022-08-17T14:53:19.501Z,6.22
2022-08-17T14:58:23.076Z,6.25
2022-08-17T15:03:26.663Z,6.97
2022-08-17T15:08:32.184Z,6.22
2022-08-17T15:13:35.917Z,5.07
2022-08-17T15:18:56.197Z,6.00
2022-08-17T15:24:01.397Z,5.82
2022-08-17T15:29:05.153Z,6.18
2022-08-17T15:34:08.781Z,6.40
2022-08-17T15:39:14.423Z,5.80
2022-08-17T15:44:23.197Z,5.63
2022-08-17T15:49:39.560Z,5.95
2022-08-17T15:54:49.538Z,6.38
2022-08-17T15:59:54.667Z,6.22
2022-08-17T16:05:10.141Z,7.32
2022-08-17T16:10:19.029Z,6.40
2022-08-17T16:15:22.769Z,5.75
2022-08-17T16:20:26.599Z,6.10
2022-08-17T16:25:52.300Z,7.47
2022-08-17T16:30:56.976Z,7.32
2022-08-17T16:36:00.671Z,8.02
2022-08-17T16:41:06.946Z,8.35
2022-08-17T16:46:10.526Z,8.27
2022-08-17T16:51:14.084Z,8.63
2022-08-17T16:56:19.347Z,9.30
2022-08-17T17:01:23.269Z,10.82
2022-08-17T17:06:38.437Z,11.13
2022-08-17T17:11:45.581Z,9.45
2022-08-17T17:16:56.572Z,8.98
2022-08-17T17:22:06.010Z,8.52
2022-08-17T17:27:22.144Z,9.32
2022-08-17T17:32:34.414Z,7.25
2022-08-17T17:37:40.961Z,5.93
2022-08-17T17:42:47.406Z,5.85
2022-08-17T17:47:51.466Z,5.13
2022-08-17T17:53:01.096Z,5.30
2022-08-17T17:58:16.411Z,5.10
2022-08-17T18:03:33.019Z,4.90
2022-08-17T18:08:55.462Z,5.50
2022-08-17T18:14:15.324Z,5.57
2022-08-17T18:19:20.228Z,5.38
2022-08-17T18:24:31.857Z,6.38
2022-08-17T18:29:43.499Z,6.07
2022-08-17T18:34:49.069Z,6.55
2022-08-17T18:39:52.765Z,7.28
2022-08-17T18:44:57.995Z,6.35
2022-08-17T18:50:21.996Z,7.00
2022-08-17T18:55:28.303Z,7.17
2022-08-17T19:00:38.490Z,7.30
2022-08-17T19:05:44.429Z,7.55
2022-08-17T19:10:49.467Z,4.82
2022-08-17T19:16:11.559Z,5.13
2022-08-17T19:21:22.349Z,5.00
2022-08-17T19:26:53.258Z,4.47
2022-08-17T19:31:56.693Z,3.78
2022-08-17T19:37:03.262Z,3.97
2022-08-17T19:42:13.615Z,4.10
2022-08-17T19:47:43.811Z,4.63
2022-08-17T19:52:55.710Z,4.50
2022-08-17T19:58:07.548Z,4.32
2022-08-17T20:03:18.681Z,3.97
2022-08-17T20:08:27.295Z,3.88
2022-08-17T20:13:37.549Z,3.20
2022-08-17T20:18:50.324Z,4.00
2022-08-17T20:24:00.366Z,4.55
2022-08-17T20:29:36.847Z,4.07
2022-08-17T20:34:47.991Z,5.05
2022-08-17T20:40:20.377Z,4.50
2022-08-17T20:45:59.218Z,4.93
2022-08-17T20:51:18.741Z,5.45
2022-08-17T20:56:54.976Z,5.55
2022-08-17T21:02:19.122Z,6.07
2022-08-17T21:12:46.468Z,6.95
2022-08-17T21:17:57.860Z,7.03
2022-08-17T21:23:31.211Z,7.38
2022-08-17T21:29:00.474Z,6.15
2022-08-17T21:34:29.272Z,5.40
2022-08-17T21:39:41.550Z,4.90
2022-08-17T21:44:49.485Z,4.63
2022-08-17T21:49:54.020Z,4.38
2022-08-17T21:55:01.467Z,4.88
2022-08-17T22:00:08.614Z,5.03
2022-08-17T22:05:14.397Z,5.45
2022-08-17T22:10:32.965Z,5.95
2022-08-17T22:15:39.995Z,5.63
2022-08-17T22:20:44.728Z,6.57
2022-08-17T22:26:09.595Z,6.60
2022-08-17T22:31:20.807Z,7.10
2022-08-17T22:36:31.195Z,6.60
2022-08-17T22:41:52.545Z,6.10
2022-08-17T22:47:01.296Z,6.35
2022-08-17T22:52:12.683Z,6.00
2022-08-17T22:57:19.133Z,5.53
2022-08-17T23:02:25.858Z,6.00
2022-08-17T23:07:29.569Z,5.40
2022-08-17T23:12:35.176Z,5.23
2022-08-17T23:17:39.252Z,5.40
2022-08-17T23:22:52.397Z,5.32
2022-08-17T23:27:59.520Z,5.67
2022-08-17T23:33:06.756Z,5.63
2022-08-17T23:38:11.308Z,5.50
2022-08-17T23:43:25.726Z,5.65
2022-08-17T23:48:35.134Z,6.38
2022-08-17T23:53:43.744Z,6.43
2022-08-17T23:58:49.046Z,5.82
